createdAt,value
2019-02-18T00:02:00.010Z,59.00
2019-02-18T00:04:29.402Z,59.00
2019-02-18T00:06:58.807Z,59.10
2019-02-18T00:09:28.269Z,59.20
2019-02-18T00:11:57.724Z,59.20
2019-02-18T00:14:27.113Z,59.20
2019-02-18T00:16:56.514Z,59.60
2019-02-18T00:19:26.137Z,59.70
2019-02-18T00:21:55.542Z,59.90
2019-02-18T00:24:25.057Z,59.80
2019-02-18T00:26:54.385Z,60.20
2019-02-18T00:29:23.812Z,60.20
2019-02-18T00:31:53.423Z,60.30
2019-02-18T00:34:23.065Z,60.60
2019-02-18T00:36:52.459Z,60.80
2019-02-18T00:39:21.856Z,61.00
2019-02-18T00:41:51.229Z,61.50
2019-02-18T00:44:22.277Z,62.00
2019-02-18T00:46:51.686Z,62.20
2019-02-18T00:49:21.088Z,63.10
2019-02-18T00:51:50.466Z,62.30
2019-02-18T00:54:20.264Z,62.40
2019-02-18T00:56:49.656Z,62.40
2019-02-18T00:59:19.037Z,62.50
2019-02-18T01:01:48.535Z,62.50
2019-02-18T01:04:18.177Z,62.60
2019-02-18T01:06:47.607Z,62.90
2019-02-18T01:09:17.003Z,63.20
2019-02-18T01:11:46.624Z,63.30
2019-02-18T01:14:16.040Z,63.50
2019-02-18T01:16:45.403Z,63.90
2019-02-18T01:19:14.820Z,64.20
2019-02-18T01:21:44.237Z,64.30
2019-02-18T01:24:13.970Z,64.80
2019-02-18T01:26:43.361Z,65.00
2019-02-18T01:29:12.733Z,65.20
2019-02-18T01:31:42.124Z,65.40
2019-02-18T01:34:11.507Z,65.80
2019-02-18T01:36:43.207Z,66.30
2019-02-18T01:39:15.876Z,66.20
2019-02-18T01:41:45.322Z,66.40
2019-02-18T01:44:14.692Z,66.80
2019-02-18T01:46:44.161Z,67.20
2019-02-18T01:49:13.625Z,68.30
2019-02-18T01:51:43.194Z,67.10
2019-02-18T01:54:12.837Z,67.90
2019-02-18T01:56:42.293Z,68.10
2019-02-18T01:59:14.279Z,68.00
2019-02-18T02:01:43.655Z,68.20
2019-02-18T02:04:13.053Z,68.30
2019-02-18T02:06:42.808Z,68.60
2019-02-18T02:09:13.849Z,68.80
2019-02-18T02:11:43.349Z,69.00
2019-02-18T02:14:12.792Z,69.10
2019-02-18T02:16:42.130Z,69.10
2019-02-18T02:19:11.648Z,69.20
2019-02-18T02:21:41.630Z,69.50
2019-02-18T02:24:11.667Z,69.60
2019-02-18T02:26:41.153Z,69.90
2019-02-18T02:29:10.542Z,70.00
2019-02-18T02:31:39.932Z,70.00
2019-02-18T02:34:09.317Z,70.20
2019-02-18T02:36:38.690Z,70.30
2019-02-18T02:39:11.034Z,70.50
2019-02-18T02:41:40.405Z,70.50
2019-02-18T02:44:10.634Z,70.90
2019-02-18T02:46:40.000Z,71.20
2019-02-18T02:49:09.771Z,71.80
2019-02-18T02:51:39.163Z,72.10
2019-02-18T02:54:08.873Z,72.40
2019-02-18T02:56:38.312Z,72.20
2019-02-18T02:59:07.981Z,72.00
2019-02-18T03:01:37.343Z,72.60
2019-02-18T03:04:06.765Z,71.80
2019-02-18T03:06:36.123Z,71.80
2019-02-18T03:09:08.503Z,71.80
2019-02-18T03:11:37.915Z,72.00
2019-02-18T03:14:07.632Z,71.80
2019-02-18T03:16:37.038Z,71.80
2019-02-18T03:19:06.746Z,71.90
2019-02-18T03:21:36.140Z,72.10
2019-02-18T03:24:05.513Z,72.80
2019-02-18T03:26:35.375Z,73.00
2019-02-18T03:29:17.918Z,72.90
2019-02-18T03:31:47.382Z,73.20
2019-02-18T03:34:21.459Z,73.40
2019-02-18T03:36:50.908Z,73.60
2019-02-18T03:39:20.543Z,73.50
2019-02-18T03:41:49.907Z,73.60
2019-02-18T03:44:19.270Z,73.10
2019-02-18T03:46:50.605Z,73.00
2019-02-18T03:49:19.845Z,73.10
2019-02-18T03:51:49.252Z,72.90
2019-02-18T03:54:18.609Z,72.90
2019-02-18T03:56:48.018Z,72.90
2019-02-18T03:59:17.395Z,72.80
2019-02-18T04:01:46.952Z,72.30
2019-02-18T04:04:16.439Z,72.10
2019-02-18T04:06:46.002Z,72.50
2019-02-18T04:09:15.601Z,72.10
2019-02-18T04:11:45.256Z,72.30
2019-02-18T04:14:14.794Z,72.30
2019-02-18T04:16:44.446Z,72.40
2019-02-18T04:19:14.489Z,72.70
2019-02-18T04:21:44.525Z,73.10
2019-02-18T04:24:14.939Z,73.20
2019-02-18T04:26:44.316Z,73.40
2019-02-18T04:29:13.692Z,73.50
2019-02-18T04:31:43.118Z,73.60
2019-02-18T04:34:12.456Z,74.00
2019-02-18T04:36:44.852Z,74.30
2019-02-18T04:39:14.225Z,74.40
2019-02-18T04:41:43.632Z,74.60
2019-02-18T04:44:12.999Z,75.00
2019-02-18T04:46:42.491Z,75.00
2019-02-18T04:49:11.873Z,74.90
2019-02-18T04:51:41.267Z,74.90
2019-02-18T04:54:10.730Z,75.10
2019-02-18T04:56:43.100Z,74.90
2019-02-18T04:59:12.508Z,74.90
2019-02-18T05:01:42.357Z,74.90
2019-02-18T05:04:14.039Z,74.90
2019-02-18T05:06:42.950Z,74.90
2019-02-18T05:09:12.305Z,74.60
2019-02-18T05:11:41.818Z,74.40
2019-02-18T05:14:11.272Z,74.10
2019-02-18T05:16:41.017Z,73.90
2019-02-18T05:19:10.404Z,73.70
2019-02-18T05:21:39.803Z,74.40
2019-02-18T05:24:09.268Z,73.50
2019-02-18T05:26:38.656Z,73.50
2019-02-18T05:29:08.049Z,73.40
2019-02-18T05:31:37.575Z,73.60
2019-02-18T05:34:06.935Z,73.50
2019-02-18T05:36:36.515Z,73.70
2019-02-18T05:39:17.503Z,73.60
2019-02-18T05:41:49.981Z,73.70
2019-02-18T05:44:15.428Z,73.80
2019-02-18T05:46:44.899Z,74.00
2019-02-18T05:49:14.322Z,74.20
2019-02-18T05:51:43.913Z,74.30
2019-02-18T05:54:14.157Z,74.30
2019-02-18T05:56:44.403Z,74.90
2019-02-18T05:59:14.663Z,75.00
2019-02-18T06:01:44.211Z,74.90
2019-02-18T06:04:13.882Z,74.90
2019-02-18T06:06:43.349Z,74.80
2019-02-18T06:09:12.735Z,74.70
2019-02-18T06:11:42.367Z,74.60
2019-02-18T06:14:11.792Z,74.60
2019-02-18T06:16:41.191Z,74.40
2019-02-18T06:19:10.691Z,74.20
2019-02-18T06:21:40.197Z,74.20
2019-02-18T06:24:09.695Z,74.00
2019-02-18T06:26:41.431Z,73.80
2019-02-18T06:29:11.198Z,73.80
2019-02-18T06:31:45.941Z,73.70
2019-02-18T06:34:18.692Z,73.90
2019-02-18T06:36:51.795Z,73.80
2019-02-18T06:39:23.134Z,73.50
2019-02-18T06:41:52.815Z,73.40
2019-02-18T06:44:26.770Z,73.40
2019-02-18T06:46:59.649Z,73.70
2019-02-18T06:49:29.657Z,73.80
2019-02-18T06:51:59.198Z,73.90
2019-02-18T06:54:28.716Z,74.20
2019-02-18T06:57:10.977Z,74.40
2019-02-18T06:59:41.831Z,74.60
2019-02-18T07:02:13.037Z,74.90
2019-02-18T07:04:56.792Z,75.20
2019-02-18T07:07:40.428Z,75.50
2019-02-18T07:10:12.113Z,75.20
2019-02-18T07:12:43.329Z,75.10
2019-02-18T07:15:13.294Z,75.00
2019-02-18T07:17:42.929Z,74.80
2019-02-18T07:20:12.643Z,74.40
2019-02-18T07:22:43.511Z,74.40
2019-02-18T07:25:13.161Z,73.80
2019-02-18T07:27:45.210Z,73.40
2019-02-18T07:30:15.276Z,72.80
2019-02-18T07:32:44.829Z,71.90
2019-02-18T07:35:15.223Z,70.90
2019-02-18T07:37:46.267Z,69.40
2019-02-18T07:40:15.879Z,68.70
2019-02-18T07:42:45.865Z,67.50
2019-02-18T07:45:15.560Z,66.50
2019-02-18T07:47:48.667Z,65.90
2019-02-18T07:50:20.969Z,65.20
2019-02-18T07:52:49.891Z,63.80
2019-02-18T07:55:19.778Z,62.60
2019-02-18T07:57:49.713Z,61.80
2019-02-18T08:00:20.009Z,60.90
2019-02-18T08:02:51.559Z,60.00
2019-02-18T08:05:23.614Z,59.00
2019-02-18T08:07:53.163Z,58.40
2019-02-18T08:10:22.753Z,57.70
2019-02-18T08:13:07.479Z,56.70
2019-02-18T08:15:37.516Z,56.00
2019-02-18T08:18:06.949Z,55.70
2019-02-18T08:20:36.871Z,55.20
2019-02-18T08:23:07.743Z,55.10
2019-02-18T08:25:37.737Z,54.90
2019-02-18T08:28:07.529Z,54.00
2019-02-18T08:30:37.359Z,53.00
2019-02-18T08:33:07.117Z,53.00
2019-02-18T08:35:39.577Z,52.60
2019-02-18T08:38:13.786Z,51.30
2019-02-18T08:40:43.655Z,51.20
2019-02-18T08:43:13.494Z,50.40
2019-02-18T08:45:47.288Z,49.30
2019-02-18T08:48:19.847Z,49.10
2019-02-18T08:50:49.417Z,48.70
2019-02-18T08:53:19.126Z,48.20
2019-02-18T08:55:49.456Z,47.60
2019-02-18T08:58:19.280Z,46.60
2019-02-18T09:00:48.994Z,46.30
2019-02-18T09:03:18.797Z,45.30
2019-02-18T09:05:48.380Z,44.50
2019-02-18T09:08:18.886Z,44.40
2019-02-18T09:10:48.976Z,43.60
2019-02-18T09:13:19.235Z,44.30
2019-02-18T09:15:59.422Z,44.10
2019-02-18T09:18:20.898Z,43.80
2019-02-18T09:20:52.301Z,43.40
2019-02-18T09:23:23.847Z,43.60
2019-02-18T09:25:55.073Z,42.90
2019-02-18T09:28:24.932Z,42.80
2019-02-18T09:30:56.529Z,41.70
2019-02-18T09:33:26.710Z,41.40
2019-02-18T09:35:56.337Z,40.60
2019-02-18T09:38:26.181Z,40.40
2019-02-18T09:41:17.006Z,40.30
2019-02-18T09:43:46.998Z,40.00
2019-02-18T09:46:19.682Z,40.10
2019-02-18T09:48:52.740Z,40.30
2019-02-18T09:51:25.326Z,39.80
2019-02-18T09:53:54.928Z,40.80
2019-02-18T09:56:24.665Z,41.30
2019-02-18T09:58:54.573Z,41.70
2019-02-18T10:01:24.535Z,41.80
2019-02-18T10:03:54.474Z,41.60
2019-02-18T10:06:24.115Z,41.20
2019-02-18T10:08:54.305Z,42.70
2019-02-18T10:11:23.929Z,42.60
2019-02-18T10:13:53.604Z,42.90
2019-02-18T10:16:23.120Z,43.40
2019-02-18T10:18:52.587Z,43.30
2019-02-18T10:21:30.181Z,42.50
2019-02-18T10:23:59.748Z,41.40
2019-02-18T10:26:29.208Z,41.10
2019-02-18T10:28:58.970Z,41.20
2019-02-18T10:31:29.008Z,41.30
2019-02-18T10:33:59.238Z,40.30
2019-02-18T10:36:28.688Z,40.70
2019-02-18T10:38:58.649Z,41.20
2019-02-18T10:41:28.223Z,40.40
2019-02-18T10:43:58.313Z,40.10
2019-02-18T10:46:28.459Z,38.60
2019-02-18T10:48:58.112Z,38.90
2019-02-18T10:51:30.152Z,39.10
2019-02-18T10:53:59.853Z,38.40
2019-02-18T10:56:29.723Z,37.50
2019-02-18T10:58:59.675Z,37.30
2019-02-18T11:01:29.221Z,38.40
2019-02-18T11:03:58.784Z,38.80
2019-02-18T11:06:28.234Z,38.40
2019-02-18T11:08:57.828Z,38.80
2019-02-18T11:11:30.214Z,38.70
2019-02-18T11:14:00.874Z,40.30
2019-02-18T11:16:30.657Z,40.20
2019-02-18T11:19:01.287Z,40.30
2019-02-18T11:21:30.920Z,41.50
2019-02-18T11:24:02.279Z,41.10
2019-02-18T11:26:31.892Z,43.00
2019-02-18T11:29:02.842Z,41.50
2019-02-18T11:31:33.722Z,43.20
2019-02-18T11:34:03.254Z,44.00
2019-02-18T11:36:32.720Z,43.60
2019-02-18T11:39:02.174Z,45.00
2019-02-18T11:41:31.577Z,45.90
2019-02-18T11:44:01.652Z,45.80
2019-02-18T11:46:31.693Z,47.20
2019-02-18T11:49:01.147Z,47.00
2019-02-18T11:51:30.814Z,47.80
2019-02-18T11:54:01.429Z,47.60
2019-02-18T11:56:32.613Z,48.30
2019-02-18T11:59:02.386Z,49.60
2019-02-18T12:01:32.323Z,49.10
2019-02-18T12:04:01.825Z,48.90
2019-02-18T12:06:34.785Z,49.10
2019-02-18T12:09:05.228Z,49.40
2019-02-18T12:11:37.824Z,49.60
2019-02-18T12:14:06.634Z,50.00
2019-02-18T12:16:36.506Z,50.00
2019-02-18T12:19:09.248Z,50.90
2019-02-18T12:21:38.950Z,51.00
2019-02-18T12:24:08.600Z,51.00
2019-02-18T12:26:39.046Z,51.60
2019-02-18T12:29:08.879Z,52.10
2019-02-18T12:31:38.554Z,52.10
2019-02-18T12:34:08.110Z,51.40
2019-02-18T12:36:37.634Z,52.10
2019-02-18T12:39:09.067Z,53.30
2019-02-18T12:41:48.231Z,53.80
2019-02-18T12:44:10.484Z,54.60
2019-02-18T12:46:40.463Z,54.60
2019-02-18T12:49:25.080Z,55.20
2019-02-18T12:51:56.744Z,55.10
2019-02-18T12:54:26.558Z,55.50
2019-02-18T12:56:56.103Z,56.10
2019-02-18T12:59:25.652Z,55.70
2019-02-18T13:01:55.355Z,55.60
2019-02-18T13:04:26.453Z,55.50
2019-02-18T13:06:56.639Z,56.10
2019-02-18T13:09:28.855Z,57.00
2019-02-18T13:11:59.276Z,56.40
2019-02-18T13:14:30.582Z,57.00
2019-02-18T13:17:00.554Z,57.50
2019-02-18T13:19:30.373Z,58.30
2019-02-18T13:22:01.816Z,58.00
2019-02-18T13:24:34.489Z,57.30
2019-02-18T13:27:04.074Z,57.00
2019-02-18T13:29:33.766Z,57.00
2019-02-18T13:32:03.551Z,57.00
2019-02-18T13:34:36.276Z,57.10
2019-02-18T13:37:06.330Z,57.70
2019-02-18T13:39:36.008Z,56.80
2019-02-18T13:42:07.642Z,56.70
2019-02-18T13:44:41.471Z,56.60
2019-02-18T13:47:14.399Z,56.90
2019-02-18T13:49:50.447Z,56.60
2019-02-18T13:52:20.145Z,56.70
2019-02-18T13:54:50.013Z,56.80
2019-02-18T13:57:25.464Z,56.00
2019-02-18T13:59:55.331Z,56.90
2019-02-18T14:02:27.281Z,56.50
2019-02-18T14:04:56.834Z,56.80
2019-02-18T14:07:28.660Z,56.10
2019-02-18T14:09:59.247Z,55.90
2019-02-18T14:12:30.787Z,56.70
2019-02-18T14:15:01.064Z,56.40
2019-02-18T14:17:31.860Z,56.30
2019-02-18T14:20:18.359Z,56.90
2019-02-18T14:22:48.185Z,56.00
2019-02-18T14:25:18.038Z,56.40
2019-02-18T14:27:47.550Z,55.80
2019-02-18T14:30:19.111Z,55.10
2019-02-18T14:32:49.501Z,55.20
2019-02-18T14:35:22.138Z,55.00
2019-02-18T14:37:54.140Z,54.60
2019-02-18T14:40:32.051Z,54.50
2019-02-18T14:43:03.457Z,54.30
2019-02-18T14:45:33.539Z,54.40
2019-02-18T14:48:04.904Z,54.70
2019-02-18T14:50:37.324Z,54.50
2019-02-18T14:53:10.279Z,54.90
2019-02-18T14:55:41.115Z,54.80
2019-02-18T14:58:11.682Z,54.90
2019-02-18T15:00:45.145Z,54.50
2019-02-18T15:03:14.788Z,55.00
2019-02-18T15:05:44.498Z,55.10
2019-02-18T15:08:14.382Z,55.70
2019-02-18T15:10:43.961Z,56.20
2019-02-18T15:13:13.551Z,55.70
2019-02-18T15:15:43.730Z,56.50
2019-02-18T15:18:15.295Z,55.40
2019-02-18T15:20:45.224Z,55.10
2019-02-18T15:23:15.091Z,54.50
2019-02-18T15:25:44.680Z,52.60
2019-02-18T15:28:15.956Z,52.10
2019-02-18T15:30:47.851Z,51.70
2019-02-18T15:33:22.819Z,51.60
2019-02-18T15:35:55.839Z,51.60
2019-02-18T15:38:26.550Z,51.90
2019-02-18T15:40:56.139Z,51.90
2019-02-18T15:43:26.748Z,51.80
2019-02-18T15:45:58.173Z,51.80
2019-02-18T15:48:29.514Z,52.10
2019-02-18T15:50:59.750Z,52.20
2019-02-18T15:53:29.431Z,52.30
2019-02-18T15:55:59.599Z,52.50
2019-02-18T15:58:30.394Z,52.70
2019-02-18T16:01:00.401Z,52.70
2019-02-18T16:03:30.870Z,53.00
2019-02-18T16:06:00.568Z,53.10
2019-02-18T16:08:32.102Z,53.40
2019-02-18T16:11:01.717Z,53.50
2019-02-18T16:13:31.881Z,53.70
2019-02-18T16:16:04.362Z,54.00
2019-02-18T16:18:34.069Z,53.70
2019-02-18T16:21:06.252Z,54.10
2019-02-18T16:23:37.984Z,54.20
2019-02-18T16:26:13.785Z,54.10
2019-02-18T16:28:43.630Z,54.40
2019-02-18T16:31:13.343Z,54.40
2019-02-18T16:33:45.741Z,54.40
2019-02-18T16:36:15.462Z,54.40
2019-02-18T16:38:46.457Z,54.70
2019-02-18T16:41:17.394Z,54.70
2019-02-18T16:43:46.886Z,54.60
2019-02-18T16:46:16.449Z,54.70
2019-02-18T16:48:46.376Z,54.80
2019-02-18T16:51:15.901Z,54.90
2019-02-18T16:53:45.855Z,55.10
2019-02-18T16:56:15.894Z,55.80
2019-02-18T16:58:45.629Z,55.40
2019-02-18T17:01:15.245Z,55.60
2019-02-18T17:03:46.047Z,55.80
2019-02-18T17:06:16.600Z,55.90
2019-02-18T17:08:46.743Z,56.10
2019-02-18T17:11:17.585Z,56.50
2019-02-18T17:13:47.256Z,56.50
2019-02-18T17:16:23.228Z,56.80
2019-02-18T17:18:52.301Z,56.90
2019-02-18T17:21:22.950Z,57.20
2019-02-18T17:23:52.570Z,58.00
2019-02-18T17:26:22.589Z,57.40
2019-02-18T17:28:52.290Z,58.00
2019-02-18T17:31:23.236Z,57.50
2019-02-18T17:33:53.112Z,58.00
2019-02-18T17:36:22.588Z,57.50
2019-02-18T17:38:52.128Z,57.80
2019-02-18T17:41:21.670Z,57.80
2019-02-18T17:43:51.347Z,58.00
2019-02-18T17:46:21.074Z,58.10
2019-02-18T17:48:50.587Z,58.20
2019-02-18T17:51:41.835Z,58.80
2019-02-18T17:54:11.551Z,59.00
2019-02-18T17:56:40.960Z,59.10
2019-02-18T17:59:10.350Z,59.30
2019-02-18T18:01:39.758Z,59.50
2019-02-18T18:04:10.771Z,59.80
2019-02-18T18:06:40.395Z,59.70
2019-02-18T18:09:09.992Z,59.90
2019-02-18T18:11:39.363Z,60.60
2019-02-18T18:14:09.015Z,60.40
2019-02-18T18:16:38.396Z,60.10
2019-02-18T18:19:09.547Z,60.70
2019-02-18T18:21:39.111Z,60.90
2019-02-18T18:24:08.873Z,61.00
2019-02-18T18:26:38.247Z,61.20
2019-02-18T18:29:07.622Z,61.30
2019-02-18T18:31:37.064Z,61.50
2019-02-18T18:34:06.458Z,61.50
2019-02-18T18:36:35.826Z,61.30
2019-02-18T18:39:06.107Z,61.50
2019-02-18T18:41:35.464Z,61.50
2019-02-18T18:44:04.851Z,61.90
2019-02-18T18:46:34.556Z,62.10
2019-02-18T18:49:03.948Z,62.50
2019-02-18T18:51:33.820Z,62.60
2019-02-18T18:54:03.199Z,63.10
2019-02-18T18:56:32.859Z,63.20
2019-02-18T18:59:02.247Z,63.90
2019-02-18T19:01:31.615Z,64.00
2019-02-18T19:04:01.007Z,64.20
2019-02-18T19:06:30.644Z,64.50
2019-02-18T19:09:00.271Z,64.90
2019-02-18T19:11:30.244Z,64.70
2019-02-18T19:13:59.602Z,65.00
2019-02-18T19:16:29.338Z,65.60
2019-02-18T19:18:58.718Z,65.30
2019-02-18T19:21:28.400Z,65.40
2019-02-18T19:23:57.796Z,65.40
2019-02-18T19:26:27.168Z,66.20
2019-02-18T19:28:56.541Z,66.10
2019-02-18T19:31:26.308Z,66.00
2019-02-18T19:33:56.527Z,66.10
2019-02-18T19:36:26.374Z,66.10
2019-02-18T19:38:56.088Z,66.10
2019-02-18T19:41:25.777Z,66.40
2019-02-18T19:43:55.291Z,66.30
2019-02-18T19:46:24.834Z,66.80
2019-02-18T19:48:54.533Z,66.70
2019-02-18T19:51:24.279Z,66.80
2019-02-18T19:53:53.664Z,66.80
2019-02-18T19:56:23.053Z,66.90
2019-02-18T19:58:52.682Z,66.80
2019-02-18T20:01:22.074Z,67.10
2019-02-18T20:03:51.456Z,66.80
2019-02-18T20:06:20.905Z,66.60
2019-02-18T20:08:50.317Z,66.50
2019-02-18T20:11:19.703Z,66.60
2019-02-18T20:13:49.083Z,66.50
2019-02-18T20:16:18.880Z,66.50
2019-02-18T20:18:48.259Z,66.20
2019-02-18T20:21:17.643Z,66.00
2019-02-18T20:23:47.036Z,66.00
2019-02-18T20:26:16.689Z,66.70
2019-02-18T20:28:46.056Z,66.60
2019-02-18T20:31:15.852Z,66.60
2019-02-18T20:33:46.209Z,66.20
2019-02-18T20:36:16.437Z,66.10
2019-02-18T20:38:45.807Z,65.90
2019-02-18T20:41:15.198Z,66.20
2019-02-18T20:43:44.571Z,66.00
2019-02-18T20:46:16.597Z,66.00
2019-02-18T20:48:45.963Z,66.10
2019-02-18T20:51:15.690Z,66.20
2019-02-18T20:53:45.060Z,66.50
2019-02-18T20:56:15.117Z,66.80
2019-02-18T20:58:44.912Z,66.70
2019-02-18T21:01:14.283Z,67.00
2019-02-18T21:03:43.888Z,67.00
2019-02-18T21:06:13.289Z,67.20
2019-02-18T21:08:42.672Z,66.90
2019-02-18T21:11:12.070Z,66.90
2019-02-18T21:13:43.428Z,66.80
2019-02-18T21:16:13.061Z,66.80
2019-02-18T21:18:42.425Z,66.80
2019-02-18T21:21:11.815Z,67.10
2019-02-18T21:23:41.187Z,67.40
2019-02-18T21:26:10.572Z,67.90
2019-02-18T21:28:40.013Z,68.30
2019-02-18T21:31:09.509Z,67.50
2019-02-18T21:33:38.871Z,67.40
2019-02-18T21:36:08.317Z,67.30
2019-02-18T21:38:37.699Z,67.40
2019-02-18T21:41:07.149Z,67.60
2019-02-18T21:43:36.516Z,67.60
2019-02-18T21:46:05.908Z,68.40
2019-02-18T21:48:35.313Z,68.30
2019-02-18T21:51:04.807Z,68.50
2019-02-18T21:53:34.177Z,68.30
2019-02-18T21:56:03.860Z,68.40
2019-02-18T21:58:33.230Z,68.20
2019-02-18T22:01:02.868Z,68.50
2019-02-18T22:03:32.271Z,68.50
2019-02-18T22:06:01.644Z,68.60
2019-02-18T22:08:31.030Z,68.60
2019-02-18T22:11:00.789Z,69.00
2019-02-18T22:13:30.416Z,68.80
2019-02-18T22:15:59.799Z,69.00
2019-02-18T22:21:05.709Z,69.60
2019-02-18T22:23:35.086Z,69.10
2019-02-18T22:26:04.752Z,69.10
2019-02-18T22:28:34.389Z,70.20
2019-02-18T22:31:03.764Z,69.00
2019-02-18T22:33:33.284Z,68.70
2019-02-18T22:36:03.594Z,68.50
2019-02-18T22:38:32.964Z,68.50
2019-02-18T22:41:02.880Z,68.60
2019-02-18T22:43:32.238Z,68.50
2019-02-18T22:46:01.646Z,68.90
2019-02-18T22:48:31.008Z,69.10
2019-02-18T22:51:00.399Z,69.10
2019-02-18T22:53:29.758Z,69.10
2019-02-18T22:55:59.765Z,68.70
2019-02-18T22:58:29.174Z,68.70
2019-02-18T23:01:00.373Z,68.60
2019-02-18T23:03:29.758Z,68.50
2019-02-18T23:05:59.105Z,68.50
2019-02-18T23:08:28.550Z,69.00
2019-02-18T23:10:58.220Z,69.10
2019-02-18T23:13:27.590Z,69.40
2019-02-18T23:15:56.970Z,69.80
2019-02-18T23:18:26.525Z,69.70
2019-02-18T23:20:55.884Z,69.40
2019-02-18T23:23:25.513Z,69.40
2019-02-18T23:25:55.108Z,69.60
2019-02-18T23:28:24.731Z,69.20
2019-02-18T23:30:54.121Z,69.40
2019-02-18T23:33:23.481Z,69.60
2019-02-18T23:35:52.856Z,69.10
2019-02-18T23:38:22.233Z,69.30
2019-02-18T23:40:51.621Z,69.00
2019-02-18T23:43:20.992Z,69.00
2019-02-18T23:45:50.647Z,69.00
2019-02-18T23:48:20.022Z,69.10
2019-02-18T23:50:49.385Z,69.00
2019-02-18T23:53:18.765Z,69.00
2019-02-18T23:55:48.151Z,68.80
2019-02-18T23:58:17.530Z,68.80
